• Join FlightAware (Why Join?)
  • Login
  • US Flag 
09:29AM EDT


 

Airport Tracker/Info


-or-


 

Live Flight TrackerFlight Track Log ✈ ELJ309 ✈ 27-Apr-2013 ✈ KAPF - KCVG

Flight Track Log - Related Links

Times and Time Zones

All times are in EDT time to prevent confusion due to time zone crossing. See the ELJ309 flight status page for this flight to view local times or setup timezone preferences in your user account.

Time Position Orientation Groundspeed Altitude Reporting Facility
EDT Latitude Longitude Course Direction KTS MPH feet Rate Location/Type
11:03AM 26.2106 -81.7169 339° North 201 231 3,300  Level Miami Center
11:04AM 26.2403 -81.7667 304° West 225 259 6,100 2,580 Climbing Miami Center
11:05AM 26.2186 -81.8492 254° West 212 244 8,500 1,980 Climbing Miami Center
11:06AM 26.2008 -81.9386 258° West 259 298 10,100 1,800 Climbing Miami Center
11:07AM 26.2014 -82.0406 270° West 297 342 12,100 1,920 Climbing Miami Center
11:08AM 26.2228 -82.4073 339° North  Level FlightAware Approximate
11:08AM 26.2108 -82.1311 277° West 323 372 14,000  Level Miami Center
11:09AM 26.2194 -82.2403 275° West 344 396 16,000 1,920 Climbing Miami Center
11:10AM 26.2278 -82.3472 275° West 354 407 17,900 2,100 Climbing Miami Center
11:11AM 26.2361 -82.4586 275° West 360 414 20,200 1,860 Climbing Miami Center
11:12AM 26.2717 -82.5644 291° West 359 413 21,700 1,320 Climbing Miami Center
11:13AM 26.3547 -82.6311 324° Northwest 357 411 22,900 1,320 Climbing Miami Center
11:14AM 26.4525 -82.6914 331° Northwest 364 419 24,400 1,500 Climbing Miami Center
11:15AM 26.5506 -82.7450 334° Northwest 379 436 25,900 1,500 Climbing Miami Center
11:16AM 26.6489 -82.7894 338° Northwest 384 442 27,400 1,380 Climbing Miami Center
11:17AM 26.7517 -82.8294 341° North 384 442 28,700 1,140 Climbing Miami Center
11:18AM 26.8539 -82.8811 336° Northwest 389 448 29,700 960 Climbing Miami Center
11:19AM 26.9583 -82.9286 338° Northwest 395 455 30,700 1,020 Climbing Miami Center
11:20AM 27.0650 -82.9714 340° North 400 460 31,800 1,020 Climbing Miami Center
11:21AM 27.1694 -83.0167 339° North 400 460 32,800 960 Climbing Miami Center
11:22AM 27.2842 -83.0669 339° North 405 466 33,800 1,020 Climbing Miami Center
11:23AM 27.3956 -83.0942 348° North 405 466 34,900 1,140 Climbing Miami Center
11:24AM 27.5058 -83.1025 356° North 398 458 36,100 1,200 Climbing Miami Center
11:25AM 27.6119 -83.1083 357° North 387 445 37,300 1,080 Climbing Miami Center
11:26AM 27.7178 -83.1186 355° North 387 445 38,300 1,020 Climbing Miami Center
11:27AM 27.8194 -83.1289 355° North 382 440 39,400 840 Climbing Miami Center
11:28AM 27.9233 -83.1394 355° North 370 426 40,000 180 Climbing Miami Center
11:29AM 28.1164 -83.1397 360° North 372 428 40,000  Level Jacksonville Center
11:30AM 28.2289 -83.1400 360° North 390 449 40,000  Level Jacksonville Center
11:31AM 28.3417 -83.1497 356° North 395 455 40,000  Level Jacksonville Center
11:32AM 28.4544 -83.1594 356° North 406 467 40,000  Level Jacksonville Center
11:33AM 28.5669 -83.1692 356° North 406 467 40,000  Level Jacksonville Center
11:34AM 28.6817 -83.1789 356° North 406 467 40,000  Level Jacksonville Center
11:35AM 28.7944 -83.1886 356° North 406 467 40,000  Level Jacksonville Center
11:36AM 28.9092 -83.2008 355° North 406 467 40,000  Level Jacksonville Center
11:37AM 29.0239 -83.2108 356° North 406 467 40,000  Level Jacksonville Center
11:38AM 29.1367 -83.2231 355° North 406 467 40,000  Level Jacksonville Center
11:39AM 29.2514 -83.2328 356° North 406 467 40,000  Level Jacksonville Center
11:40AM 29.3661 -83.2428 356° North 406 467 40,000  Level Jacksonville Center
11:41AM 29.4789 -83.2553 354° North 406 467 40,000  Level Jacksonville Center
11:42AM 29.5917 -83.2653 356° North 406 467 40,000  Level Jacksonville Center
11:43AM 29.7044 -83.2775 355° North 406 467 40,000  Level Jacksonville Center
11:44AM 29.8211 -83.2875 356° North 406 467 40,000  Level Jacksonville Center
11:45AM 29.9339 -83.2978 355° North 406 467 40,000  Level Jacksonville Center
11:46AM 30.0342 -83.3053 356° North 406 467 40,000  Level Jacksonville Center
11:47AM 30.1469 -83.3153 356° North 406 467 40,000  Level Jacksonville Center
11:48AM 30.2594 -83.3278 355° North 406 467 40,000  Level Jacksonville Center
11:49AM 30.3744 -83.3356 357° North 406 467 40,000  Level Jacksonville Center
11:50AM 30.4850 -83.3458 355° North 406 467 40,000  Level Jacksonville Center
11:51AM 30.5997 -83.3558 356° North 406 467 40,000  Level Jacksonville Center
11:52AM 30.7144 -83.3711 353° North 406 467 40,000  Level Jacksonville Center
11:53AM 30.8253 -83.3789 357° North 406 467 40,000  Level Jacksonville Center
11:54AM 30.9336 -83.3867 356° North 394 453 40,000  Level Jacksonville Center
11:55AM 31.0464 -83.4017 353° North 399 459 40,000  Level Jacksonville Center
11:56AM 31.1592 -83.4122 355° North 399 459 40,000  Level Jacksonville Center
11:58AM 31.3422 -83.4311 355° North 410 472 40,000  Level Atlanta Center
11:59AM 31.4572 -83.4400 356° North 410 472 40,000  Level Atlanta Center
12:00PM 31.5700 -83.4489 356° North 404 465 40,000  Level Atlanta Center
12:01PM 31.6847 -83.4606 355° North 404 465 40,000  Level Atlanta Center
12:02PM 31.8122 -83.4744 355° North 404 465 40,000  Level Atlanta Center
12:03PM 31.9269 -83.4858 355° North 411 473 40,000  Level Atlanta Center
12:04PM 32.0417 -83.4975 355° North 411 473 40,000  Level Atlanta Center
12:05PM 32.1567 -83.5089 355° North 406 467 40,000  Level Atlanta Center
12:06PM 32.2694 -83.5206 355° North 406 467 40,000  Level Atlanta Center
12:07PM 32.3800 -83.5322 355° North 406 467 40,000  Level Atlanta Center
12:08PM 32.4908 -83.5439 355° North 406 467 40,000  Level Atlanta Center
12:09PM 32.6036 -83.5531 356° North 406 467 40,000  Level Atlanta Center
12:10PM 32.7164 -83.5647 355° North 406 467 40,000  Level Atlanta Center
12:11PM 32.8269 -83.5767 355° North 406 467 40,000  Level Atlanta Center
12:12PM 32.9375 -83.5883 355° North 406 467 40,000  Level Atlanta Center
12:13PM 33.0442 -83.6003 355° North 406 467 40,000  Level Atlanta Center
12:14PM 33.1569 -83.6072 357° North 406 467 40,000  Level Atlanta Center
12:15PM 33.2697 -83.6214 354° North 406 467 40,000  Level Atlanta Center
12:16PM 33.3781 -83.6308 356° North 406 467 40,000  Level Atlanta Center
12:17PM 33.4908 -83.6428 355° North 406 467 40,000  Level Atlanta Center
12:18PM 33.6036 -83.6522 356° North 406 467 40,000  Level Atlanta Center
12:19PM 33.7144 -83.6642 355° North 401 461 40,000  Level Atlanta Center
12:20PM 33.8272 -83.6761 355° North 406 467 40,000  Level Atlanta Center
12:21PM 33.9397 -83.6858 356° North 406 467 40,000  Level Atlanta Center
12:22PM 34.0525 -83.6978 355° North 406 467 40,000  Level Atlanta Center
12:23PM 34.1675 -83.7100 355° North 406 467 40,000  Level Atlanta Center
12:24PM 34.2781 -83.7194 356° North 406 467 40,000  Level Atlanta Center
12:25PM 34.3928 -83.7317 355° North 406 467 40,000  Level Atlanta Center
12:26PM 34.4953 -83.7439 354° North 411 473 40,000  Level Atlanta Center
12:27PM 34.6078 -83.7561 355° North 405 466 40,000  Level Atlanta Center
12:28PM 34.7228 -83.7683 355° North 410 472 40,000  Level Atlanta Center
12:29PM 34.8353 -83.7781 356° North 405 466 40,000  Level Atlanta Center
12:30PM 34.9544 -83.7956 353° North 399 459 40,000  Level Atlanta Center
12:31PM 35.0692 -83.8053 356° North 399 459 40,000  Level Atlanta Center
12:32PM 35.1819 -83.8178 355° North 404 465 40,000  Level Atlanta Center
12:33PM 35.2967 -83.8328 354° North 410 472 40,000  Level Atlanta Center
12:34PM 35.4114 -83.8425 356° North 410 472 40,000  Level Atlanta Center
12:35PM 35.5261 -83.8575 354° North 410 472 40,000  Level Atlanta Center
12:36PM 35.6431 -83.8675 356° North 410 472 40,000  Level Atlanta Center
12:37PM 35.7578 -83.8800 355° North 410 472 40,000  Level Atlanta Center
12:38PM 35.8706 -83.8928 355° North 410 472 40,000  Level Atlanta Center
12:39PM 35.9831 -83.8822 North 404 465 40,000  Level Atlanta Center
12:40PM 36.0956 -83.8614 North 404 465 40,000  Level Atlanta Center
12:42PM 36.2731 -83.8283 North 411 473 40,000  Level Indianapolis Center
12:43PM 36.3872 -83.8092 North 414 476 40,000  Level Indianapolis Center
12:44PM 36.5044 -83.7881 North 424 488 40,000 -300 Level Indianapolis Center
12:45PM 36.6275 -83.7683 North 428 493 39,500 -780 Descending Indianapolis Center
12:46PM 36.7475 -83.7486 North 429 494 38,500 -1,080 Descending Indianapolis Center
12:47PM 36.8653 -83.7283 North 423 487 37,300 -1,260 Descending Indianapolis Center
12:48PM 36.9797 -83.7075 North 413 475 36,000 -1,380 Descending Indianapolis Center
12:49PM 37.0975 -83.6869 North 420 483 34,600 -1,800 Descending Indianapolis Center
12:50PM 37.2175 -83.6644 North 430 495 32,400 -2,340 Descending Indianapolis Center
12:51PM 37.3431 -83.6425 North 447 514 29,900 -2,640 Descending Indianapolis Center
12:52PM 37.4900 -83.6169 North 451 519 27,000 -2,760 Descending Indianapolis Center
12:53PM 37.6153 -83.5997 North 449 517 24,300 -2,640 Descending Indianapolis Center
12:54PM 37.7275 -83.6386 345° North 419 482 21,600 -2,160 Descending Indianapolis Center
12:55PM 37.8167 -83.7072 329° Northwest 377 434 19,900 -960 Descending Indianapolis Center
12:56PM 37.9058 -83.7717 330° Northwest 369 425 19,700 -1,080 Descending Indianapolis Center
12:57PM 37.9981 -83.8397 330° Northwest 379 436 17,800 -1,560 Descending Indianapolis Center
12:58PM 38.0892 -83.9042 331° Northwest 374 430 16,600 -1,320 Descending Indianapolis Center
12:59PM 38.1800 -83.9681 331° Northwest 369 425 15,200 -1,620 Descending Indianapolis Center
01:00PM 38.2833 -84.0456 330° Northwest 370 426 13,400 -1,620 Descending Indianapolis Center
01:01PM 38.3739 -84.1100 331° Northwest 369 425 11,900 -1,200 Descending Indianapolis Center
01:02PM 38.4619 -84.1739 330° Northwest 364 419 11,000 -480 Descending Indianapolis Center
01:03PM 38.5447 -84.2328 331° Northwest 342 394 11,000  Level Indianapolis Center
01:04PM 38.6272 -84.2931 330° Northwest 340 391 11,000 -60 Level Indianapolis Center
01:05PM 38.7008 -84.3869 315° West 347 399 10,900 -60 Descending Indianapolis Center
01:06PM 38.7647 -84.4825 311° West 349 402 10,900 -360 Level Indianapolis Center
01:07PM 38.8500 -84.5119 345° North 325 374 10,200 -900 Descending Indianapolis Center
01:08PM 38.8833 -84.5167 354° North 283 326 9,600 -960 Descending Cincinnati TRACON
01:08PM 38.9500 -84.5167 360° North 289 333 9,000 -1,020 Descending Cincinnati TRACON
01:09PM 39.0333 -84.5333 351° North 291 335 7,800 -1,260 Descending Cincinnati TRACON
01:10PM 39.1167 -84.5333 360° North 260 299 6,500 -960 Descending Cincinnati TRACON
01:11PM 39.1536 -84.5611 330° Northwest 246 283 6,100 -1,320 Descending Indianapolis Center
01:12PM 39.1667 -84.6333 283° West 136 157 3,900 -1,560 Descending Cincinnati TRACON
01:13PM 39.1500 -84.6667 237° Southwest 125 144 2,800 -960 Descending Cincinnati TRACON
01:14PM 39.1167 -84.6667 180° South 119 137 2,000 -900 Descending Cincinnati TRACON
01:15PM 39.0833 -84.6667 180° South 118 136 1,100 -900 Descending Cincinnati TRACON
01:18PM 39.0488 -84.6678 270° West  Level Estimated